sensor_id;sensor_type;location;lat;lon;timestamp;temperature;humidity
18225;DHT22;9237;48.590;8.854;2023-08-06T00:01:17;12.50;99.90
18225;DHT22;9237;48.590;8.854;2023-08-06T00:03:46;12.40;99.90
18225;DHT22;9237;48.590;8.854;2023-08-06T00:06:13;12.30;99.90
18225;DHT22;9237;48.590;8.854;2023-08-06T00:08:40;12.20;99.90
18225;DHT22;9237;48.590;8.854;2023-08-06T00:11:06;12.10;99.90
18225;DHT22;9237;48.590;8.854;2023-08-06T00:13:35;12.10;99.90
18225;DHT22;9237;48.590;8.854;2023-08-06T00:16:11;12.10;99.90
18225;DHT22;9237;48.590;8.854;2023-08-06T00:18:39;12.10;99.90
18225;DHT22;9237;48.590;8.854;2023-08-06T00:21:06;12.10;99.90
18225;DHT22;9237;48.590;8.854;2023-08-06T00:23:32;12.00;99.90
18225;DHT22;9237;48.590;8.854;2023-08-06T00:25:59;12.10;99.90
18225;DHT22;9237;48.590;8.854;2023-08-06T00:28:26;12.00;99.90
18225;DHT22;9237;48.590;8.854;2023-08-06T00:30:55;12.10;99.90
18225;DHT22;9237;48.590;8.854;2023-08-06T00:33:21;12.10;99.90
18225;DHT22;9237;48.590;8.854;2023-08-06T00:35:48;12.00;99.90
18225;DHT22;9237;48.590;8.854;2023-08-06T00:38:15;11.90;99.90
18225;DHT22;9237;48.590;8.854;2023-08-06T00:40:42;11.80;99.90
18225;DHT22;9237;48.590;8.854;2023-08-06T00:43:09;11.80;99.90
18225;DHT22;9237;48.590;8.854;2023-08-06T00:45:37;11.60;99.90
18225;DHT22;9237;48.590;8.854;2023-08-06T00:48:06;11.50;99.90
18225;DHT22;9237;48.590;8.854;2023-08-06T00:50:33;11.40;99.90
18225;DHT22;9237;48.590;8.854;2023-08-06T00:53:00;11.30;99.90
18225;DHT22;9237;48.590;8.854;2023-08-06T00:55:27;11.20;99.90
18225;DHT22;9237;48.590;8.854;2023-08-06T00:57:55;11.30;99.90
18225;DHT22;9237;48.590;8.854;2023-08-06T01:00:22;11.20;99.90
18225;DHT22;9237;48.590;8.854;2023-08-06T01:02:50;11.40;99.90
18225;DHT22;9237;48.590;8.854;2023-08-06T01:05:18;11.10;99.90
18225;DHT22;9237;48.590;8.854;2023-08-06T01:07:52;11.20;99.90
18225;DHT22;9237;48.590;8.854;2023-08-06T01:10:31;11.10;99.90
18225;DHT22;9237;48.590;8.854;2023-08-06T01:13:11;11.10;99.90
18225;DHT22;9237;48.590;8.854;2023-08-06T01:15:44;11.00;99.90
18225;DHT22;9237;48.590;8.854;2023-08-06T01:18:13;10.90;99.90
18225;DHT22;9237;48.590;8.854;2023-08-06T01:20:41;10.90;99.90
18225;DHT22;9237;48.590;8.854;2023-08-06T01:23:08;11.30;99.90
18225;DHT22;9237;48.590;8.854;2023-08-06T01:25:39;11.10;99.90
18225;DHT22;9237;48.590;8.854;2023-08-06T01:28:11;11.00;99.90
18225;DHT22;9237;48.590;8.854;2023-08-06T01:30:41;10.90;99.90
18225;DHT22;9237;48.590;8.854;2023-08-06T01:33:12;10.70;99.90
18225;DHT22;9237;48.590;8.854;2023-08-06T01:35:42;10.70;99.90
18225;DHT22;9237;48.590;8.854;2023-08-06T01:38:09;10.60;99.90
18225;DHT22;9237;48.590;8.854;2023-08-06T01:40:36;10.60;99.90
18225;DHT22;9237;48.590;8.854;2023-08-06T01:43:03;10.60;99.90
18225;DHT22;9237;48.590;8.854;2023-08-06T01:45:30;10.60;99.90
18225;DHT22;9237;48.590;8.854;2023-08-06T01:47:56;10.50;99.90
18225;DHT22;9237;48.590;8.854;2023-08-06T01:50:23;10.60;99.90
18225;DHT22;9237;48.590;8.854;2023-08-06T01:52:51;10.60;99.90
18225;DHT22;9237;48.590;8.854;2023-08-06T01:55:18;10.70;99.90
18225;DHT22;9237;48.590;8.854;2023-08-06T01:57:45;10.70;99.90
18225;DHT22;9237;48.590;8.854;2023-08-06T02:00:12;10.60;99.90
18225;DHT22;9237;48.590;8.854;2023-08-06T02:02:39;10.50;99.90
18225;DHT22;9237;48.590;8.854;2023-08-06T02:05:06;11.50;99.90
18225;DHT22;9237;48.590;8.854;2023-08-06T02:07:33;10.40;99.90
18225;DHT22;9237;48.590;8.854;2023-08-06T02:10:01;10.40;99.90
18225;DHT22;9237;48.590;8.854;2023-08-06T02:12:28;11.30;99.90
18225;DHT22;9237;48.590;8.854;2023-08-06T02:14:55;10.80;99.90
18225;DHT22;9237;48.590;8.854;2023-08-06T02:17:21;10.70;99.90
18225;DHT22;9237;48.590;8.854;2023-08-06T02:19:48;10.80;99.90
18225;DHT22;9237;48.590;8.854;2023-08-06T02:22:15;10.80;99.90
18225;DHT22;9237;48.590;8.854;2023-08-06T02:24:42;10.80;99.90
18225;DHT22;9237;48.590;8.854;2023-08-06T02:27:10;10.90;99.90
18225;DHT22;9237;48.590;8.854;2023-08-06T02:29:36;11.20;99.90
18225;DHT22;9237;48.590;8.854;2023-08-06T02:32:04;11.20;99.90
18225;DHT22;9237;48.590;8.854;2023-08-06T02:34:31;11.10;99.90
18225;DHT22;9237;48.590;8.854;2023-08-06T02:36:57;11.10;99.90
18225;DHT22;9237;48.590;8.854;2023-08-06T02:39:24;11.20;99.90
18225;DHT22;9237;48.590;8.854;2023-08-06T02:41:51;11.10;99.90
18225;DHT22;9237;48.590;8.854;2023-08-06T02:44:19;11.10;99.90
18225;DHT22;9237;48.590;8.854;2023-08-06T02:46:46;11.00;99.90
18225;DHT22;9237;48.590;8.854;2023-08-06T02:49:12;11.00;99.90
18225;DHT22;9237;48.590;8.854;2023-08-06T02:51:39;11.20;99.90
18225;DHT22;9237;48.590;8.854;2023-08-06T02:54:06;11.10;99.90
18225;DHT22;9237;48.590;8.854;2023-08-06T02:56:33;11.20;99.90
18225;DHT22;9237;48.590;8.854;2023-08-06T02:59:00;11.10;99.90
18225;DHT22;9237;48.590;8.854;2023-08-06T03:01:28;11.30;99.90
18225;DHT22;9237;48.590;8.854;2023-08-06T03:03:55;11.30;99.90
18225;DHT22;9237;48.590;8.854;2023-08-06T03:06:21;11.30;99.90
18225;DHT22;9237;48.590;8.854;2023-08-06T03:08:48;11.30;99.90
18225;DHT22;9237;48.590;8.854;2023-08-06T03:11:15;11.30;99.90
18225;DHT22;9237;48.590;8.854;2023-08-06T03:13:42;11.40;99.90
18225;DHT22;9237;48.590;8.854;2023-08-06T03:16:08;11.40;99.90
18225;DHT22;9237;48.590;8.854;2023-08-06T03:18:37;11.60;99.90
18225;DHT22;9237;48.590;8.854;2023-08-06T03:21:03;11.40;99.90
18225;DHT22;9237;48.590;8.854;2023-08-06T03:23:30;11.40;99.90
18225;DHT22;9237;48.590;8.854;2023-08-06T03:26:01;11.30;99.90
18225;DHT22;9237;48.590;8.854;2023-08-06T03:28:28;11.30;99.90
18225;DHT22;9237;48.590;8.854;2023-08-06T03:31:01;11.30;99.90
18225;DHT22;9237;48.590;8.854;2023-08-06T03:33:28;11.30;99.90
18225;DHT22;9237;48.590;8.854;2023-08-06T03:35:57;11.30;99.90
18225;DHT22;9237;48.590;8.854;2023-08-06T03:38:23;11.40;99.90
18225;DHT22;9237;48.590;8.854;2023-08-06T03:40:50;11.50;99.90
18225;DHT22;9237;48.590;8.854;2023-08-06T03:43:17;11.50;99.90
18225;DHT22;9237;48.590;8.854;2023-08-06T03:45:44;11.60;99.90
18225;DHT22;9237;48.590;8.854;2023-08-06T03:48:11;11.60;99.90
18225;DHT22;9237;48.590;8.854;2023-08-06T03:50:37;11.80;99.90
18225;DHT22;9237;48.590;8.854;2023-08-06T03:53:05;11.80;99.90
18225;DHT22;9237;48.590;8.854;2023-08-06T03:55:32;11.80;99.90
18225;DHT22;9237;48.590;8.854;2023-08-06T03:57:59;11.90;99.90
18225;DHT22;9237;48.590;8.854;2023-08-06T04:00:26;11.90;99.90
18225;DHT22;9237;48.590;8.854;2023-08-06T04:02:52;12.00;99.90
18225;DHT22;9237;48.590;8.854;2023-08-06T04:05:19;12.10;99.90
18225;DHT22;9237;48.590;8.854;2023-08-06T04:07:46;12.10;99.90
18225;DHT22;9237;48.590;8.854;2023-08-06T04:10:14;12.30;99.90
18225;DHT22;9237;48.590;8.854;2023-08-06T04:12:41;12.00;99.90
18225;DHT22;9237;48.590;8.854;2023-08-06T04:15:08;12.00;99.90
18225;DHT22;9237;48.590;8.854;2023-08-06T04:17:35;12.00;99.90
18225;DHT22;9237;48.590;8.854;2023-08-06T04:20:01;12.10;99.90
18225;DHT22;9237;48.590;8.854;2023-08-06T04:22:29;12.20;99.90
18225;DHT22;9237;48.590;8.854;2023-08-06T04:24:55;12.30;99.90
18225;DHT22;9237;48.590;8.854;2023-08-06T04:27:23;12.30;99.90
18225;DHT22;9237;48.590;8.854;2023-08-06T04:29:50;12.30;99.90
18225;DHT22;9237;48.590;8.854;2023-08-06T04:32:17;12.30;99.90
18225;DHT22;9237;48.590;8.854;2023-08-06T04:34:44;12.40;99.90
18225;DHT22;9237;48.590;8.854;2023-08-06T04:37:12;12.40;99.90
18225;DHT22;9237;48.590;8.854;2023-08-06T04:39:39;12.30;99.90
18225;DHT22;9237;48.590;8.854;2023-08-06T04:42:06;12.30;99.90
18225;DHT22;9237;48.590;8.854;2023-08-06T04:44:34;12.40;99.90
18225;DHT22;9237;48.590;8.854;2023-08-06T04:47:01;12.30;99.90
18225;DHT22;9237;48.590;8.854;2023-08-06T04:49:27;12.40;99.90
18225;DHT22;9237;48.590;8.854;2023-08-06T04:51:54;12.40;99.90
18225;DHT22;9237;48.590;8.854;2023-08-06T04:54:21;12.40;99.90
18225;DHT22;9237;48.590;8.854;2023-08-06T04:56:47;12.50;99.90
18225;DHT22;9237;48.590;8.854;2023-08-06T04:59:14;12.40;99.90
18225;DHT22;9237;48.590;8.854;2023-08-06T05:01:42;12.40;99.90
18225;DHT22;9237;48.590;8.854;2023-08-06T05:04:09;12.40;99.90
18225;DHT22;9237;48.590;8.854;2023-08-06T05:06:36;12.40;99.90
18225;DHT22;9237;48.590;8.854;2023-08-06T05:09:04;12.50;99.90
18225;DHT22;9237;48.590;8.854;2023-08-06T05:11:31;12.60;99.90
18225;DHT22;9237;48.590;8.854;2023-08-06T05:13:58;12.80;99.90
18225;DHT22;9237;48.590;8.854;2023-08-06T05:16:24;12.90;99.90
18225;DHT22;9237;48.590;8.854;2023-08-06T05:18:53;13.00;99.90
18225;DHT22;9237;48.590;8.854;2023-08-06T05:21:19;13.10;99.90
18225;DHT22;9237;48.590;8.854;2023-08-06T05:23:46;13.10;99.90
18225;DHT22;9237;48.590;8.854;2023-08-06T05:26:13;13.20;99.90
18225;DHT22;9237;48.590;8.854;2023-08-06T05:28:41;13.30;99.90
18225;DHT22;9237;48.590;8.854;2023-08-06T05:31:08;13.40;99.90
18225;DHT22;9237;48.590;8.854;2023-08-06T05:33:34;13.40;99.90
18225;DHT22;9237;48.590;8.854;2023-08-06T05:36:03;13.40;99.90
18225;DHT22;9237;48.590;8.854;2023-08-06T05:38:30;13.40;99.90
18225;DHT22;9237;48.590;8.854;2023-08-06T05:40:57;13.40;99.90
18225;DHT22;9237;48.590;8.854;2023-08-06T05:43:23;13.40;99.90
18225;DHT22;9237;48.590;8.854;2023-08-06T05:45:50;13.40;99.90
18225;DHT22;9237;48.590;8.854;2023-08-06T05:48:17;13.40;99.90
18225;DHT22;9237;48.590;8.854;2023-08-06T05:50:44;13.40;99.90
18225;DHT22;9237;48.590;8.854;2023-08-06T05:53:12;13.40;99.90
18225;DHT22;9237;48.590;8.854;2023-08-06T05:55:39;13.40;99.90
18225;DHT22;9237;48.590;8.854;2023-08-06T05:58:05;13.40;99.90
18225;DHT22;9237;48.590;8.854;2023-08-06T06:00:32;13.50;99.90
18225;DHT22;9237;48.590;8.854;2023-08-06T06:03:00;13.60;99.90
18225;DHT22;9237;48.590;8.854;2023-08-06T06:05:27;13.70;99.90
18225;DHT22;9237;48.590;8.854;2023-08-06T06:07:54;13.90;99.90
18225;DHT22;9237;48.590;8.854;2023-08-06T06:10:22;14.00;99.90
18225;DHT22;9237;48.590;8.854;2023-08-06T06:12:48;13.90;99.90
18225;DHT22;9237;48.590;8.854;2023-08-06T06:15:15;13.90;99.90
18225;DHT22;9237;48.590;8.854;2023-08-06T06:17:42;13.80;99.90
18225;DHT22;9237;48.590;8.854;2023-08-06T06:20:09;13.90;99.90
18225;DHT22;9237;48.590;8.854;2023-08-06T06:22:36;13.90;99.90
18225;DHT22;9237;48.590;8.854;2023-08-06T06:25:03;13.80;99.90
18225;DHT22;9237;48.590;8.854;2023-08-06T06:27:32;13.80;99.90
18225;DHT22;9237;48.590;8.854;2023-08-06T06:29:59;13.80;99.90
18225;DHT22;9237;48.590;8.854;2023-08-06T06:32:26;13.80;99.90
18225;DHT22;9237;48.590;8.854;2023-08-06T06:34:54;13.80;99.90
18225;DHT22;9237;48.590;8.854;2023-08-06T06:37:21;13.80;99.90
18225;DHT22;9237;48.590;8.854;2023-08-06T06:39:47;13.80;99.90
18225;DHT22;9237;48.590;8.854;2023-08-06T06:42:14;13.90;99.90
18225;DHT22;9237;48.590;8.854;2023-08-06T06:44:43;13.80;99.90
18225;DHT22;9237;48.590;8.854;2023-08-06T06:47:10;13.60;99.90
18225;DHT22;9237;48.590;8.854;2023-08-06T06:49:36;13.60;99.90
18225;DHT22;9237;48.590;8.854;2023-08-06T06:52:04;13.70;99.90
18225;DHT22;9237;48.590;8.854;2023-08-06T06:54:31;13.80;99.90
18225;DHT22;9237;48.590;8.854;2023-08-06T06:56:57;13.70;99.90
18225;DHT22;9237;48.590;8.854;2023-08-06T06:59:24;13.70;99.90
18225;DHT22;9237;48.590;8.854;2023-08-06T07:01:52;13.70;99.90
18225;DHT22;9237;48.590;8.854;2023-08-06T07:04:19;13.70;99.90
18225;DHT22;9237;48.590;8.854;2023-08-06T07:06:46;13.60;99.90
18225;DHT22;9237;48.590;8.854;2023-08-06T07:09:13;13.60;99.90
18225;DHT22;9237;48.590;8.854;2023-08-06T07:11:40;13.50;99.90
18225;DHT22;9237;48.590;8.854;2023-08-06T07:14:09;13.60;99.90
18225;DHT22;9237;48.590;8.854;2023-08-06T07:16:36;13.60;99.90
18225;DHT22;9237;48.590;8.854;2023-08-06T07:19:04;13.60;99.90
18225;DHT22;9237;48.590;8.854;2023-08-06T07:21:31;13.60;99.90
18225;DHT22;9237;48.590;8.854;2023-08-06T07:23:58;13.40;99.90
18225;DHT22;9237;48.590;8.854;2023-08-06T07:26:25;13.50;99.90
18225;DHT22;9237;48.590;8.854;2023-08-06T07:28:52;13.40;99.90
18225;DHT22;9237;48.590;8.854;2023-08-06T07:31:19;13.40;99.90
18225;DHT22;9237;48.590;8.854;2023-08-06T07:33:46;13.60;99.90
18225;DHT22;9237;48.590;8.854;2023-08-06T07:36:14;13.70;99.90
18225;DHT22;9237;48.590;8.854;2023-08-06T07:38:41;13.70;99.90
18225;DHT22;9237;48.590;8.854;2023-08-06T07:41:08;13.90;99.90
18225;DHT22;9237;48.590;8.854;2023-08-06T07:43:35;13.80;99.90
18225;DHT22;9237;48.590;8.854;2023-08-06T07:46:02;13.80;99.90
18225;DHT22;9237;48.590;8.854;2023-08-06T07:48:29;13.90;99.90
18225;DHT22;9237;48.590;8.854;2023-08-06T07:50:56;14.00;99.90
18225;DHT22;9237;48.590;8.854;2023-08-06T07:53:25;14.00;99.90
18225;DHT22;9237;48.590;8.854;2023-08-06T07:55:55;14.00;99.90
18225;DHT22;9237;48.590;8.854;2023-08-06T07:58:24;13.90;99.90
18225;DHT22;9237;48.590;8.854;2023-08-06T08:00:51;13.90;99.90
18225;DHT22;9237;48.590;8.854;2023-08-06T08:03:18;13.90;99.90
18225;DHT22;9237;48.590;8.854;2023-08-06T08:05:45;13.80;99.90
18225;DHT22;9237;48.590;8.854;2023-08-06T08:08:12;13.80;99.90
18225;DHT22;9237;48.590;8.854;2023-08-06T08:10:41;15.20;99.90
18225;DHT22;9237;48.590;8.854;2023-08-06T08:13:08;13.80;99.90
18225;DHT22;9237;48.590;8.854;2023-08-06T08:15:35;13.80;99.90
18225;DHT22;9237;48.590;8.854;2023-08-06T08:18:02;13.90;99.90
18225;DHT22;9237;48.590;8.854;2023-08-06T08:20:29;14.00;99.90
18225;DHT22;9237;48.590;8.854;2023-08-06T08:22:58;14.10;99.90
18225;DHT22;9237;48.590;8.854;2023-08-06T08:25:26;14.20;99.90
18225;DHT22;9237;48.590;8.854;2023-08-06T08:27:54;14.20;99.90
18225;DHT22;9237;48.590;8.854;2023-08-06T08:30:21;14.20;99.90
18225;DHT22;9237;48.590;8.854;2023-08-06T08:32:50;14.30;99.90
18225;DHT22;9237;48.590;8.854;2023-08-06T08:35:17;14.20;99.90
18225;DHT22;9237;48.590;8.854;2023-08-06T08:37:44;14.20;99.90
18225;DHT22;9237;48.590;8.854;2023-08-06T08:40:11;14.10;99.90
18225;DHT22;9237;48.590;8.854;2023-08-06T08:42:37;14.20;99.90
18225;DHT22;9237;48.590;8.854;2023-08-06T08:45:10;14.20;99.90
18225;DHT22;9237;48.590;8.854;2023-08-06T08:47:40;14.30;99.90
18225;DHT22;9237;48.590;8.854;2023-08-06T08:50:08;14.10;99.90
18225;DHT22;9237;48.590;8.854;2023-08-06T08:52:36;14.30;99.90
18225;DHT22;9237;48.590;8.854;2023-08-06T08:55:03;14.50;99.90
18225;DHT22;9237;48.590;8.854;2023-08-06T08:57:30;14.50;99.90
18225;DHT22;9237;48.590;8.854;2023-08-06T08:59:57;14.40;99.90
18225;DHT22;9237;48.590;8.854;2023-08-06T09:02:28;14.40;99.90
18225;DHT22;9237;48.590;8.854;2023-08-06T09:04:56;14.70;99.90
18225;DHT22;9237;48.590;8.854;2023-08-06T09:07:25;15.20;99.90
18225;DHT22;9237;48.590;8.854;2023-08-06T09:09:53;15.30;99.90
18225;DHT22;9237;48.590;8.854;2023-08-06T09:12:21;15.30;99.90
18225;DHT22;9237;48.590;8.854;2023-08-06T09:14:48;15.40;99.90
18225;DHT22;9237;48.590;8.854;2023-08-06T09:17:16;15.70;99.90
18225;DHT22;9237;48.590;8.854;2023-08-06T09:19:46;15.50;99.90
18225;DHT22;9237;48.590;8.854;2023-08-06T09:22:15;15.20;99.90
18225;DHT22;9237;48.590;8.854;2023-08-06T09:24:42;15.00;99.90
18225;DHT22;9237;48.590;8.854;2023-08-06T09:27:12;14.70;99.90
18225;DHT22;9237;48.590;8.854;2023-08-06T09:29:43;14.60;99.90
18225;DHT22;9237;48.590;8.854;2023-08-06T09:32:11;14.60;99.90
18225;DHT22;9237;48.590;8.854;2023-08-06T09:34:39;14.50;99.90
18225;DHT22;9237;48.590;8.854;2023-08-06T09:37:08;14.50;99.90
18225;DHT22;9237;48.590;8.854;2023-08-06T09:39:36;15.70;99.90
18225;DHT22;9237;48.590;8.854;2023-08-06T09:42:03;14.50;99.90
18225;DHT22;9237;48.590;8.854;2023-08-06T09:44:31;14.30;99.90
18225;DHT22;9237;48.590;8.854;2023-08-06T09:47:00;14.00;99.90
18225;DHT22;9237;48.590;8.854;2023-08-06T09:49:28;13.80;99.90
18225;DHT22;9237;48.590;8.854;2023-08-06T09:52:11;13.80;99.90
18225;DHT22;9237;48.590;8.854;2023-08-06T09:54:38;13.70;99.90
18225;DHT22;9237;48.590;8.854;2023-08-06T09:57:05;13.70;99.90
18225;DHT22;9237;48.590;8.854;2023-08-06T09:59:32;13.70;99.90
18225;DHT22;9237;48.590;8.854;2023-08-06T10:01:59;13.70;99.90
18225;DHT22;9237;48.590;8.854;2023-08-06T10:04:26;13.90;99.90
18225;DHT22;9237;48.590;8.854;2023-08-06T10:06:55;14.80;99.90
18225;DHT22;9237;48.590;8.854;2023-08-06T10:09:24;14.20;99.90
18225;DHT22;9237;48.590;8.854;2023-08-06T10:11:51;14.30;99.90
18225;DHT22;9237;48.590;8.854;2023-08-06T10:14:23;14.20;99.90
18225;DHT22;9237;48.590;8.854;2023-08-06T10:16:51;14.20;99.90
18225;DHT22;9237;48.590;8.854;2023-08-06T10:19:19;14.50;99.90
18225;DHT22;9237;48.590;8.854;2023-08-06T10:22:10;14.40;99.90
18225;DHT22;9237;48.590;8.854;2023-08-06T10:24:47;14.50;99.90
18225;DHT22;9237;48.590;8.854;2023-08-06T10:27:19;14.50;99.90
18225;DHT22;9237;48.590;8.854;2023-08-06T10:29:46;14.40;99.90
18225;DHT22;9237;48.590;8.854;2023-08-06T10:32:13;14.50;99.90
18225;DHT22;9237;48.590;8.854;2023-08-06T10:34:53;14.50;99.90
18225;DHT22;9237;48.590;8.854;2023-08-06T10:37:21;14.50;99.90
18225;DHT22;9237;48.590;8.854;2023-08-06T10:39:50;14.50;99.90
18225;DHT22;9237;48.590;8.854;2023-08-06T10:42:27;14.50;99.90
18225;DHT22;9237;48.590;8.854;2023-08-06T10:45:17;14.60;99.90
18225;DHT22;9237;48.590;8.854;2023-08-06T10:47:45;14.60;99.90
18225;DHT22;9237;48.590;8.854;2023-08-06T10:50:13;14.40;99.90
18225;DHT22;9237;48.590;8.854;2023-08-06T10:52:42;14.30;99.90
18225;DHT22;9237;48.590;8.854;2023-08-06T10:55:10;14.20;99.90
18225;DHT22;9237;48.590;8.854;2023-08-06T10:57:37;14.20;99.90
18225;DHT22;9237;48.590;8.854;2023-08-06T11:00:05;14.10;99.90
18225;DHT22;9237;48.590;8.854;2023-08-06T11:02:34;14.20;99.90
18225;DHT22;9237;48.590;8.854;2023-08-06T11:05:05;14.20;99.90
18225;DHT22;9237;48.590;8.854;2023-08-06T11:07:32;14.30;99.90
18225;DHT22;9237;48.590;8.854;2023-08-06T11:10:03;14.30;99.90
18225;DHT22;9237;48.590;8.854;2023-08-06T11:12:31;14.40;99.90
18225;DHT22;9237;48.590;8.854;2023-08-06T11:14:58;14.50;99.90
18225;DHT22;9237;48.590;8.854;2023-08-06T11:17:26;14.30;99.90
18225;DHT22;9237;48.590;8.854;2023-08-06T11:19:53;14.20;99.90
18225;DHT22;9237;48.590;8.854;2023-08-06T11:22:20;14.30;99.90
18225;DHT22;9237;48.590;8.854;2023-08-06T11:24:48;14.10;99.90
18225;DHT22;9237;48.590;8.854;2023-08-06T11:27:15;14.20;99.90
18225;DHT22;9237;48.590;8.854;2023-08-06T11:29:44;14.20;99.90
18225;DHT22;9237;48.590;8.854;2023-08-06T11:32:11;14.40;99.90
18225;DHT22;9237;48.590;8.854;2023-08-06T11:34:39;14.50;99.90
18225;DHT22;9237;48.590;8.854;2023-08-06T11:37:06;14.60;99.90
18225;DHT22;9237;48.590;8.854;2023-08-06T11:39:33;14.60;99.90
18225;DHT22;9237;48.590;8.854;2023-08-06T11:42:02;14.70;99.90
18225;DHT22;9237;48.590;8.854;2023-08-06T11:44:30;14.80;99.90
18225;DHT22;9237;48.590;8.854;2023-08-06T11:47:01;14.90;99.90
18225;DHT22;9237;48.590;8.854;2023-08-06T11:49:40;15.10;99.90
18225;DHT22;9237;48.590;8.854;2023-08-06T11:52:17;15.30;99.90
18225;DHT22;9237;48.590;8.854;2023-08-06T11:54:46;15.40;99.90
18225;DHT22;9237;48.590;8.854;2023-08-06T11:57:13;15.30;99.90
18225;DHT22;9237;48.590;8.854;2023-08-06T11:59:40;14.90;99.90
18225;DHT22;9237;48.590;8.854;2023-08-06T12:02:09;14.40;99.90
18225;DHT22;9237;48.590;8.854;2023-08-06T12:05:10;14.20;99.90
18225;DHT22;9237;48.590;8.854;2023-08-06T12:07:38;14.20;99.90
18225;DHT22;9237;48.590;8.854;2023-08-06T12:10:05;14.40;99.90
18225;DHT22;9237;48.590;8.854;2023-08-06T12:12:33;14.50;99.90
18225;DHT22;9237;48.590;8.854;2023-08-06T12:14:59;14.50;99.90
18225;DHT22;9237;48.590;8.854;2023-08-06T12:17:28;14.60;99.90
18225;DHT22;9237;48.590;8.854;2023-08-06T12:19:54;14.60;99.90
18225;DHT22;9237;48.590;8.854;2023-08-06T12:22:21;14.50;99.90
18225;DHT22;9237;48.590;8.854;2023-08-06T12:24:48;14.50;99.90
18225;DHT22;9237;48.590;8.854;2023-08-06T12:27:15;14.50;99.90
18225;DHT22;9237;48.590;8.854;2023-08-06T12:29:43;14.60;99.90
18225;DHT22;9237;48.590;8.854;2023-08-06T12:32:10;14.60;99.90
18225;DHT22;9237;48.590;8.854;2023-08-06T12:34:39;14.60;99.90
18225;DHT22;9237;48.590;8.854;2023-08-06T12:37:06;14.60;99.90
18225;DHT22;9237;48.590;8.854;2023-08-06T12:39:33;14.60;99.90
18225;DHT22;9237;48.590;8.854;2023-08-06T12:42:00;14.80;99.90
18225;DHT22;9237;48.590;8.854;2023-08-06T12:44:27;15.00;99.90
18225;DHT22;9237;48.590;8.854;2023-08-06T12:46:54;15.10;99.90
18225;DHT22;9237;48.590;8.854;2023-08-06T12:49:21;15.00;99.90
18225;DHT22;9237;48.590;8.854;2023-08-06T12:51:50;15.20;99.90
18225;DHT22;9237;48.590;8.854;2023-08-06T12:54:17;15.40;99.90
18225;DHT22;9237;48.590;8.854;2023-08-06T12:56:44;16.10;99.90
18225;DHT22;9237;48.590;8.854;2023-08-06T12:59:11;16.60;99.90
18225;DHT22;9237;48.590;8.854;2023-08-06T13:01:38;17.60;99.90
18225;DHT22;9237;48.590;8.854;2023-08-06T13:04:05;17.80;99.90
18225;DHT22;9237;48.590;8.854;2023-08-06T13:06:32;17.50;99.90
18225;DHT22;9237;48.590;8.854;2023-08-06T13:09:02;17.30;99.90
18225;DHT22;9237;48.590;8.854;2023-08-06T13:11:30;17.10;99.90
18225;DHT22;9237;48.590;8.854;2023-08-06T13:14:03;16.80;99.90
18225;DHT22;9237;48.590;8.854;2023-08-06T13:16:30;16.50;99.90
18225;DHT22;9237;48.590;8.854;2023-08-06T13:18:56;16.50;99.90
18225;DHT22;9237;48.590;8.854;2023-08-06T13:21:23;16.60;99.90
18225;DHT22;9237;48.590;8.854;2023-08-06T13:23:50;16.40;99.90
18225;DHT22;9237;48.590;8.854;2023-08-06T13:26:18;16.00;99.90
18225;DHT22;9237;48.590;8.854;2023-08-06T13:28:45;15.80;99.90
18225;DHT22;9237;48.590;8.854;2023-08-06T13:31:12;15.90;99.90
18225;DHT22;9237;48.590;8.854;2023-08-06T13:33:38;15.80;99.90
18225;DHT22;9237;48.590;8.854;2023-08-06T13:36:05;15.70;99.90
18225;DHT22;9237;48.590;8.854;2023-08-06T13:38:32;15.80;99.90
18225;DHT22;9237;48.590;8.854;2023-08-06T13:40:58;16.10;99.90
18225;DHT22;9237;48.590;8.854;2023-08-06T13:43:26;16.60;99.90
18225;DHT22;9237;48.590;8.854;2023-08-06T13:45:53;17.70;99.90
18225;DHT22;9237;48.590;8.854;2023-08-06T13:48:20;18.60;99.90
18225;DHT22;9237;48.590;8.854;2023-08-06T13:50:47;18.40;99.90
18225;DHT22;9237;48.590;8.854;2023-08-06T13:53:14;18.80;99.90
18225;DHT22;9237;48.590;8.854;2023-08-06T13:55:40;18.30;99.90
18225;DHT22;9237;48.590;8.854;2023-08-06T13:58:07;18.00;99.90
18225;DHT22;9237;48.590;8.854;2023-08-06T14:00:36;18.00;99.90
18225;DHT22;9237;48.590;8.854;2023-08-06T14:03:03;18.10;99.90
18225;DHT22;9237;48.590;8.854;2023-08-06T14:05:30;18.10;99.90
18225;DHT22;9237;48.590;8.854;2023-08-06T14:07:57;17.70;99.90
18225;DHT22;9237;48.590;8.854;2023-08-06T14:10:23;17.40;99.90
18225;DHT22;9237;48.590;8.854;2023-08-06T14:12:50;17.20;99.90
18225;DHT22;9237;48.590;8.854;2023-08-06T14:15:17;16.90;99.90
18225;DHT22;9237;48.590;8.854;2023-08-06T14:17:45;16.50;99.90
18225;DHT22;9237;48.590;8.854;2023-08-06T14:20:12;16.20;99.90
18225;DHT22;9237;48.590;8.854;2023-08-06T14:22:38;16.10;99.90
18225;DHT22;9237;48.590;8.854;2023-08-06T14:25:06;15.70;99.90
18225;DHT22;9237;48.590;8.854;2023-08-06T14:27:33;15.30;99.90
18225;DHT22;9237;48.590;8.854;2023-08-06T14:30:00;14.50;99.90
18225;DHT22;9237;48.590;8.854;2023-08-06T14:32:28;13.90;99.90
18225;DHT22;9237;48.590;8.854;2023-08-06T14:34:56;13.70;99.90
18225;DHT22;9237;48.590;8.854;2023-08-06T14:37:24;13.60;99.90
18225;DHT22;9237;48.590;8.854;2023-08-06T14:39:51;13.70;99.90
18225;DHT22;9237;48.590;8.854;2023-08-06T14:42:18;14.00;99.90
18225;DHT22;9237;48.590;8.854;2023-08-06T14:44:45;14.40;99.90
18225;DHT22;9237;48.590;8.854;2023-08-06T14:47:11;14.10;99.90
18225;DHT22;9237;48.590;8.854;2023-08-06T14:49:38;14.00;99.90
18225;DHT22;9237;48.590;8.854;2023-08-06T14:52:07;14.10;99.90
18225;DHT22;9237;48.590;8.854;2023-08-06T14:54:33;14.30;99.90
18225;DHT22;9237;48.590;8.854;2023-08-06T14:57:00;14.40;99.90
18225;DHT22;9237;48.590;8.854;2023-08-06T14:59:27;14.50;99.90
18225;DHT22;9237;48.590;8.854;2023-08-06T15:01:54;14.60;99.90
18225;DHT22;9237;48.590;8.854;2023-08-06T15:04:21;14.70;99.90
18225;DHT22;9237;48.590;8.854;2023-08-06T15:06:48;15.10;99.90
18225;DHT22;9237;48.590;8.854;2023-08-06T15:09:17;15.20;99.90
18225;DHT22;9237;48.590;8.854;2023-08-06T15:11:43;15.10;99.90
18225;DHT22;9237;48.590;8.854;2023-08-06T15:14:10;15.10;99.90
18225;DHT22;9237;48.590;8.854;2023-08-06T15:16:37;15.20;99.90
18225;DHT22;9237;48.590;8.854;2023-08-06T15:19:04;15.80;99.90
18225;DHT22;9237;48.590;8.854;2023-08-06T15:21:30;16.30;99.90
18225;DHT22;9237;48.590;8.854;2023-08-06T15:23:57;16.00;99.90
18225;DHT22;9237;48.590;8.854;2023-08-06T15:26:26;16.30;99.90
18225;DHT22;9237;48.590;8.854;2023-08-06T15:28:53;16.50;99.90
18225;DHT22;9237;48.590;8.854;2023-08-06T15:31:20;16.40;99.90
18225;DHT22;9237;48.590;8.854;2023-08-06T15:33:47;16.70;99.90
18225;DHT22;9237;48.590;8.854;2023-08-06T15:36:14;16.70;99.90
18225;DHT22;9237;48.590;8.854;2023-08-06T15:38:41;16.50;99.90
18225;DHT22;9237;48.590;8.854;2023-08-06T15:41:07;16.50;99.90
18225;DHT22;9237;48.590;8.854;2023-08-06T15:43:36;16.40;99.90
18225;DHT22;9237;48.590;8.854;2023-08-06T15:46:03;15.80;99.90
18225;DHT22;9237;48.590;8.854;2023-08-06T15:48:29;15.40;99.90